Time;durP1;ratioP1;P1;durP2;ratioP2;P2;SDS_P1;SDS_P2;PMS_P1;PMS_P2;Temp;Humidity;BMP_temperature;BMP_pressure;BME280_temperature;BME280_humidity;BME280_pressure;Samples;Min_cycle;Max_cycle;Signal;HPM_P1;HPM_P2
2023/06/14 00:01:06;;;;;;;15.73;8.02;;;;;;;27.92;76.80;97414.63;4966629;28;20046;-67
2023/06/14 00:03:35;;;;;;;15.25;7.72;;;;;;;27.91;77.38;97418.47;4967197;28;20051;-66
2023/06/14 00:06:05;;;;;;;21.15;8.52;;;;;;;27.90;77.84;97419.59;4966227;28;20375;-66
2023/06/14 00:08:35;;;;;;;19.08;7.70;;;;;;;27.91;77.55;97426.66;4966482;28;20051;-67
2023/06/14 00:11:04;;;;;;;26.27;8.88;;;;;;;27.92;77.53;97435.63;4966805;28;20157;-67
2023/06/14 00:13:33;;;;;;;23.38;9.77;;;;;;;27.97;77.72;97435.41;4957920;28;20043;-66
2023/06/14 00:16:03;;;;;;;15.68;8.88;;;;;;;27.96;78.28;97431.09;4966128;28;20095;-67
2023/06/14 00:18:33;;;;;;;15.27;8.60;;;;;;;27.90;77.88;97427.78;4967308;28;20047;-68
2023/06/14 00:21:03;;;;;;;15.10;8.85;;;;;;;27.94;77.34;97433.34;4965891;28;20059;-68
2023/06/14 00:23:34;;;;;;;17.33;7.93;;;;;;;27.96;77.36;97433.81;4962472;28;20499;-66
2023/06/14 00:26:03;;;;;;;16.75;7.93;;;;;;;27.95;77.52;97434.94;4968568;28;20050;-66
2023/06/14 00:28:32;;;;;;;18.52;8.35;;;;;;;27.96;77.25;97434.59;4971607;28;20411;-68
2023/06/14 00:31:01;;;;;;;19.05;9.05;;;;;;;27.95;77.78;97424.84;4953814;28;20146;-66
2023/06/14 00:33:31;;;;;;;21.88;8.90;;;;;;;28.00;78.08;97426.56;4975625;28;20130;-66
2023/06/14 00:36:00;;;;;;;19.90;9.07;;;;;;;28.00;77.60;97426.56;4978484;28;20053;-66
2023/06/14 00:38:29;;;;;;;26.48;8.63;;;;;;;28.03;76.99;97423.94;4978020;28;20051;-66
2023/06/14 00:40:58;;;;;;;23.88;9.70;;;;;;;28.04;76.10;97425.53;4962018;28;20050;-66
2023/06/14 00:43:28;;;;;;;18.90;8.50;;;;;;;28.09;75.95;97425.34;4960389;28;20163;-67
2023/06/14 00:45:57;;;;;;;20.90;8.68;;;;;;;28.12;74.76;97429.34;4945691;28;20070;-66
2023/06/14 00:48:28;;;;;;;25.85;9.75;;;;;;;28.18;73.33;97438.88;4970563;28;20043;-66
2023/06/14 00:51:01;;;;;;;23.50;8.43;;;;;;;28.23;74.47;97433.22;4957281;28;20043;-66
2023/06/14 00:53:35;;;;;;;23.15;8.15;;;;;;;28.26;73.62;97443.44;4959526;28;20050;-67
2023/06/14 00:56:04;;;;;;;24.23;9.45;;;;;;;28.29;73.15;97452.84;4961288;28;20137;-66
2023/06/14 00:58:34;;;;;;;27.70;8.43;;;;;;;28.34;72.69;97458.88;4959991;28;20379;-66
2023/06/14 01:01:04;;;;;;;23.42;8.52;;;;;;;28.40;71.83;97464.91;4960892;28;20113;-66
2023/06/14 01:03:35;;;;;;;24.25;7.63;;;;;;;28.45;73.00;97475.59;4951334;28;20074;-67
2023/06/14 01:06:33;;;;;;;30.67;8.13;;;;;;;28.50;71.80;97481.59;4960636;28;20675;-67
2023/06/14 01:09:15;;;;;;;17.85;9.00;;;;;;;28.64;70.57;97496.81;4960282;28;20897;-68
2023/06/14 01:12:06;;;;;;;27.70;11.18;;;;;;;28.69;71.63;97516.47;4960536;28;20569;-67
2023/06/14 01:14:38;;;;;;;20.27;10.15;;;;;;;28.67;74.05;97520.69;4974041;28;20386;-67
2023/06/14 01:17:15;;;;;;;26.60;9.63;;;;;;;28.51;75.50;97532.22;4957192;28;20098;-66
2023/06/14 01:19:48;;;;;;;17.55;8.57;;;;;;;28.54;75.33;97549.84;4967701;28;20046;-66
2023/06/14 01:22:18;;;;;;;15.98;9.18;;;;;;;28.60;75.21;97543.03;4962101;28;20506;-67
2023/06/14 01:24:47;;;;;;;18.80;8.98;;;;;;;28.60;74.03;97532.13;4970064;28;20046;-66
2023/06/14 01:27:18;;;;;;;20.15;8.90;;;;;;;28.88;73.75;97537.75;4969460;28;20059;-67
2023/06/14 01:29:48;;;;;;;19.08;8.57;;;;;;;28.96;72.73;97531.41;4958359;28;20046;-68
2023/06/14 01:32:19;;;;;;;21.52;9.90;;;;;;;28.95;72.09;97530.59;4958783;28;20364;-67
2023/06/14 01:34:49;;;;;;;24.33;9.00;;;;;;;29.09;71.73;97527.53;4967923;28;20055;-67
2023/06/14 01:37:20;;;;;;;19.00;8.50;;;;;;;29.22;71.72;97539.22;4943339;28;20093;-67
2023/06/14 01:39:51;;;;;;;19.27;9.68;;;;;;;29.15;70.60;97530.84;4961547;28;20082;-67
2023/06/14 01:42:21;;;;;;;24.13;11.43;;;;;;;29.19;70.20;97529.81;4957760;28;20133;-67
2023/06/14 01:44:53;;;;;;;31.92;12.18;;;;;;;29.34;69.79;97537.31;4956726;28;20113;-66
2023/06/14 01:47:24;;;;;;;32.20;13.52;;;;;;;29.43;69.24;97542.66;4955421;28;20128;-67
2023/06/14 01:49:54;;;;;;;29.45;15.05;;;;;;;29.61;69.38;97551.38;4962727;28;20047;-67
2023/06/14 01:52:24;;;;;;;31.23;14.02;;;;;;;29.44;68.49;97536.84;4968661;28;20057;-67
2023/06/14 01:54:53;;;;;;;25.08;12.27;;;;;;;29.54;68.63;97541.03;4962768;28;20153;-68
2023/06/14 01:57:26;;;;;;;25.45;12.13;;;;;;;29.73;67.16;97546.69;4959107;28;20046;-67
2023/06/14 01:59:56;;;;;;;23.27;10.48;;;;;;;30.02;66.60;97551.06;4971894;28;20047;-67
2023/06/14 02:02:26;;;;;;;22.50;10.30;;;;;;;30.16;66.07;97558.84;4957045;28;20081;-68
2023/06/14 02:04:57;;;;;;;18.67;8.90;;;;;;;30.75;64.98;97553.44;4960634;28;20089;-67
2023/06/14 02:07:26;;;;;;;15.35;8.48;;;;;;;31.16;63.17;97549.38;4957409;28;20059;-68
2023/06/14 02:09:56;;;;;;;15.65;8.45;;;;;;;31.51;61.19;97543.97;4960163;28;20050;-65
2023/06/14 02:12:25;;;;;;;33.55;10.30;;;;;;;31.36;60.50;97539.31;4960044;28;20102;-66
2023/06/14 02:14:57;;;;;;;29.83;8.57;;;;;;;31.35;61.20;97540.44;4952930;28;20636;-67
2023/06/14 02:17:29;;;;;;;23.02;7.43;;;;;;;31.81;61.27;97547.78;4968096;28;20051;-67
2023/06/14 02:19:58;;;;;;;17.63;7.07;;;;;;;31.85;60.04;97542.38;4946045;28;20056;-66
2023/06/14 02:22:28;;;;;;;19.42;8.00;;;;;;;31.89;58.56;97545.97;4955930;28;20059;-67
2023/06/14 02:24:58;;;;;;;16.73;7.05;;;;;;;32.09;57.61;97551.13;4955922;28;20047;-65
2023/06/14 02:27:30;;;;;;;21.30;6.63;;;;;;;32.19;57.88;97557.97;4959247;28;20062;-65
2023/06/14 02:30:00;;;;;;;16.23;6.90;;;;;;;32.39;57.69;97556.00;4955815;28;20139;-65
2023/06/14 02:32:35;;;;;;;22.30;6.85;;;;;;;32.76;57.40;97553.56;4963881;28;20135;-66
2023/06/14 02:35:06;;;;;;;17.42;7.00;;;;;;;32.35;57.45;97553.19;4950481;28;20094;-66
2023/06/14 02:37:37;;;;;;;13.98;6.53;;;;;;;32.77;57.04;97544.97;4954870;28;20117;-66
2023/06/14 02:40:08;;;;;;;28.08;6.80;;;;;;;32.87;55.71;97543.56;4957309;28;20050;-66
2023/06/14 02:42:38;;;;;;;21.95;7.10;;;;;;;33.08;56.21;97541.16;4956262;28;20134;-66
2023/06/14 02:45:09;;;;;;;25.58;7.30;;;;;;;33.25;54.91;97539.88;4957990;28;20050;-66
2023/06/14 02:47:39;;;;;;;27.85;7.28;;;;;;;32.71;56.97;97545.63;4942635;28;20039;-66
2023/06/14 02:50:09;;;;;;;20.85;7.55;;;;;;;32.23;58.36;97538.84;4959930;28;20055;-66
2023/06/14 02:52:41;;;;;;;19.17;6.88;;;;;;;32.15;57.69;97537.91;4954878;28;20166;-66
2023/06/14 02:55:11;;;;;;;32.13;6.88;;;;;;;32.52;57.60;97539.03;4958228;28;20458;-66
2023/06/14 02:57:40;;;;;;;36.40;8.40;;;;;;;32.76;55.67;97548.06;4958676;28;20051;-66
2023/06/14 03:00:12;;;;;;;28.80;7.53;;;;;;;32.74;55.75;97556.69;4940115;28;20190;-65
2023/06/14 03:02:45;;;;;;;27.92;7.63;;;;;;;33.00;56.50;97560.63;4936911;28;20047;-66
2023/06/14 03:05:15;;;;;;;24.27;6.93;;;;;;;32.89;55.27;97566.72;4955804;28;20140;-66
2023/06/14 03:07:47;;;;;;;24.63;7.53;;;;;;;33.23;56.15;97584.19;4947860;28;20062;-66
2023/06/14 03:10:18;;;;;;;27.08;7.85;;;;;;;33.41;54.11;97578.97;4949246;28;20417;-66
2023/06/14 03:12:48;;;;;;;25.77;8.00;;;;;;;33.52;54.35;97598.34;4955528;28;20788;-66
2023/06/14 03:15:23;;;;;;;34.75;10.02;;;;;;;33.44;54.51;97582.91;4974652;28;20154;-66
2023/06/14 03:17:53;;;;;;;25.88;7.35;;;;;;;33.67;53.50;97558.97;4958610;28;20057;-66
2023/06/14 03:20:23;;;;;;;31.42;7.90;;;;;;;33.42;53.61;97567.59;4957230;28;20125;-65
2023/06/14 03:22:54;;;;;;;29.27;7.70;;;;;;;33.89;54.52;97577.31;4948053;28;20149;-66
2023/06/14 03:25:23;;;;;;;19.80;8.13;;;;;;;33.85;52.63;97587.47;4961553;28;20058;-66
2023/06/14 03:27:52;;;;;;;30.42;8.07;;;;;;;33.87;52.84;97581.59;4958318;28;20051;-66
2023/06/14 03:30:22;;;;;;;25.42;8.05;;;;;;;34.07;52.85;97577.56;4955850;28;20062;-66
2023/06/14 03:32:55;;;;;;;27.33;8.02;;;;;;;34.21;52.99;97586.78;4956826;28;20054;-67
2023/06/14 03:35:29;;;;;;;34.08;8.73;;;;;;;34.10;51.81;97590.53;4954923;28;20535;-68
2023/06/14 03:37:58;;;;;;;27.23;7.70;;;;;;;34.93;51.26;97596.59;4957975;28;20047;-67
2023/06/14 03:40:28;;;;;;;24.60;7.78;;;;;;;35.02;50.68;97591.56;4957976;28;20050;-67
2023/06/14 03:43:02;;;;;;;25.70;7.95;;;;;;;35.18;49.83;97592.16;4957647;28;20760;-69
2023/06/14 03:45:32;;;;;;;29.92;7.18;;;;;;;35.63;49.34;97573.59;4952395;28;20046;-67
2023/06/14 03:48:02;;;;;;;23.02;7.60;;;;;;;35.43;48.05;97579.34;4957357;28;20039;-68
2023/06/14 03:50:32;;;;;;;24.45;6.95;;;;;;;36.28;48.13;97590.09;4957927;28;20105;-68
2023/06/14 03:53:02;;;;;;;22.77;7.55;;;;;;;35.49;47.15;97591.63;4955901;28;20043;-68
2023/06/14 03:55:33;;;;;;;28.27;7.68;;;;;;;35.31;47.32;97598.16;4958654;28;20771;-68
2023/06/14 03:58:05;;;;;;;29.35;7.57;;;;;;;35.92;48.40;97597.41;4950782;28;20146;-66
2023/06/14 04:00:37;;;;;;;23.98;7.47;;;;;;;36.45;47.20;97603.16;4943344;28;20345;-66
2023/06/14 04:03:07;;;;;;;25.02;8.73;;;;;;;35.73;47.08;97612.25;4946636;28;20055;-65
2023/06/14 04:05:40;;;;;;;24.80;7.93;;;;;;;36.07;47.42;97601.78;4940383;28;20114;-69
2023/06/14 04:08:10;;;;;;;27.65;9.18;;;;;;;35.10;47.96;97613.28;4944664;28;20044;-66
2023/06/14 04:10:39;;;;;;;31.75;10.82;;;;;;;35.88;48.41;97607.63;4937636;28;20134;-64
2023/06/14 04:13:12;;;;;;;24.77;8.20;;;;;;;36.85;47.56;97604.88;4945114;28;20043;-63
2023/06/14 04:15:43;;;;;;;28.75;7.97;;;;;;;36.65;47.24;97609.16;4942869;29;20051;-63
2023/06/14 04:18:19;;;;;;;26.95;8.23;;;;;;;36.10;46.52;97608.50;4942188;28;20039;-64
2023/06/14 04:20:53;;;;;;;22.45;8.00;;;;;;;36.17;48.40;97608.56;4958909;28;20145;-63
2023/06/14 04:23:23;;;;;;;34.83;8.90;;;;;;;36.66;46.69;97610.72;4938174;28;20047;-64
2023/06/14 04:25:53;;;;;;;23.58;8.13;;;;;;;36.92;46.14;97613.94;4946592;28;20062;-64
2023/06/14 04:28:25;;;;;;;33.88;7.90;;;;;;;37.23;46.13;97603.34;4957927;28;20472;-63
2023/06/14 04:31:01;;;;;;;28.20;8.52;;;;;;;36.13;45.63;97607.75;4946473;28;20134;-63
2023/06/14 04:33:32;;;;;;;26.60;8.75;;;;;;;36.65;47.25;97606.38;4945797;28;20043;-65
2023/06/14 04:36:02;;;;;;;22.52;7.97;;;;;;;37.05;46.15;97608.03;4945788;28;20261;-65
2023/06/14 04:38:34;;;;;;;29.38;8.88;;;;;;;36.78;45.99;97600.09;4929831;29;20089;-65
2023/06/14 04:41:04;;;;;;;30.92;8.40;;;;;;;37.02;47.20;97597.78;4928038;28;20051;-63
2023/06/14 04:43:37;;;;;;;22.80;8.98;;;;;;;36.48;45.75;97594.09;4945458;28;20134;-63
2023/06/14 04:46:09;;;;;;;26.33;8.25;;;;;;;36.60;47.64;97601.28;4952964;28;20486;-63
2023/06/14 04:48:42;;;;;;;30.13;9.88;;;;;;;36.30;45.90;97607.03;4951845;28;20138;-63
2023/06/14 04:51:13;;;;;;;33.60;8.70;;;;;;;36.87;48.54;97603.28;4944899;28;20094;-63
2023/06/14 04:53:43;;;;;;;33.00;8.93;;;;;;;37.00;45.61;97595.41;4945743;28;20482;-63
2023/06/14 04:56:13;;;;;;;32.42;9.60;;;;;;;37.06;47.42;97593.06;4945132;28;20043;-63
2023/06/14 04:58:43;;;;;;;24.85;8.18;;;;;;;37.42;45.47;97593.84;4950383;28;20057;-63
2023/06/14 05:01:13;;;;;;;29.80;10.88;;;;;;;37.38;47.24;97595.84;4955861;28;20070;-63
2023/06/14 05:03:45;;;;;;;31.77;10.55;;;;;;;37.27;45.05;97593.84;4950814;28;20117;-63
2023/06/14 05:06:17;;;;;;;34.90;11.05;;;;;;;37.76;45.33;97595.00;4955610;28;20043;-62
2023/06/14 05:08:47;;;;;;;42.72;9.65;;;;;;;37.49;46.50;97582.81;4956018;28;20049;-64
2023/06/14 05:11:17;;;;;;;27.30;8.77;;;;;;;37.17;45.43;97578.09;4957369;28;20047;-64
2023/06/14 05:13:48;;;;;;;33.58;9.15;;;;;;;36.93;45.63;97576.06;4966118;28;20057;-65
2023/06/14 05:16:19;;;;;;;32.67;9.18;;;;;;;36.87;45.30;97585.91;4951893;28;20134;-65
2023/06/14 05:18:48;;;;;;;29.90;8.82;;;;;;;37.11;47.71;97579.66;4954738;28;20539;-65
2023/06/14 05:21:18;;;;;;;32.15;8.18;;;;;;;36.73;48.45;97577.66;4959248;28;20051;-65
2023/06/14 05:23:48;;;;;;;29.15;7.78;;;;;;;36.48;48.54;97574.78;4959805;28;20040;-65
2023/06/14 05:26:19;;;;;;;27.77;7.60;;;;;;;36.21;51.56;97565.25;4958705;28;20055;-64
2023/06/14 05:28:49;;;;;;;27.25;8.57;;;;;;;36.26;50.76;97564.88;4958993;28;20491;-65
2023/06/14 05:31:19;;;;;;;29.85;7.97;;;;;;;36.08;52.37;97569.50;4957688;28;20134;-65
2023/06/14 05:33:49;;;;;;;23.13;8.40;;;;;;;36.17;49.44;97559.72;4956201;28;20066;-65
2023/06/14 05:36:18;;;;;;;29.60;8.18;;;;;;;35.99;50.05;97562.38;4953342;28;20046;-65
2023/06/14 05:38:48;;;;;;;28.77;9.10;;;;;;;36.15;50.13;97555.78;4950406;28;20047;-65
2023/06/14 05:41:20;;;;;;;27.80;8.65;;;;;;;35.93;49.82;97555.66;4956858;28;20046;-64
2023/06/14 05:43:50;;;;;;;29.80;7.78;;;;;;;35.85;53.38;97551.28;4954491;28;20050;-62
2023/06/14 05:46:22;;;;;;;27.23;7.68;;;;;;;35.91;51.39;97552.50;4960043;28;20103;-63
2023/06/14 05:48:52;;;;;;;19.10;6.50;;;;;;;35.82;49.02;97543.00;4956759;28;20055;-63
2023/06/14 05:51:24;;;;;;;28.48;6.50;;;;;;;35.85;49.79;97550.50;4959490;28;20566;-61
2023/06/14 05:53:54;;;;;;;26.98;6.13;;;;;;;35.72;51.17;97546.47;4958016;28;20129;-63
2023/06/14 05:56:24;;;;;;;26.17;6.22;;;;;;;35.81;50.46;97541.41;4956213;28;20055;-62
2023/06/14 05:58:53;;;;;;;20.27;6.07;;;;;;;35.80;49.31;97546.16;4957441;28;20035;-62
2023/06/14 06:01:22;;;;;;;35.47;8.95;;;;;;;36.23;46.96;97532.56;4946710;28;20102;-63
2023/06/14 06:03:51;;;;;;;23.23;6.63;;;;;;;36.72;47.97;97549.25;4953476;28;20058;-62
2023/06/14 06:06:21;;;;;;;18.67;5.45;;;;;;;36.40;50.13;97545.59;4953570;28;20051;-62
2023/06/14 06:08:50;;;;;;;24.45;7.13;;;;;;;35.85;51.63;97547.75;4957078;28;20141;-62
2023/06/14 06:11:20;;;;;;;19.30;5.88;;;;;;;36.10;50.86;97543.13;4967223;28;20066;-64
2023/06/14 06:13:49;;;;;;;22.95;7.25;;;;;;;35.70;51.35;97535.88;4955962;28;20042;-62
2023/06/14 06:16:19;;;;;;;30.38;7.63;;;;;;;35.49;52.43;97536.53;4952229;28;20134;-63
2023/06/14 06:18:48;;;;;;;23.20;5.82;;;;;;;35.57;52.73;97540.88;4958757;28;20047;-64
2023/06/14 06:21:17;;;;;;;19.23;5.88;;;;;;;35.34;53.22;97528.53;4957422;28;20043;-63
2023/06/14 06:23:46;;;;;;;26.70;5.85;;;;;;;35.56;52.87;97536.53;4957387;28;20074;-63
2023/06/14 06:26:16;;;;;;;30.77;6.32;;;;;;;35.63;52.24;97529.50;4958891;28;20046;-65
2023/06/14 06:28:45;;;;;;;24.17;6.07;;;;;;;35.90;51.27;97528.06;4939721;28;20050;-63
2023/06/14 06:31:15;;;;;;;23.65;6.40;;;;;;;36.45;48.55;97532.22;4958981;28;20043;-63
2023/06/14 06:33:55;;;;;;;23.70;5.50;;;;;;;36.69;47.25;97532.69;4959303;28;20051;-62
2023/06/14 06:36:24;;;;;;;27.48;5.60;;;;;;;37.00;46.58;97536.66;4959011;28;20042;-63
2023/06/14 06:38:53;;;;;;;25.35;5.95;;;;;;;37.10;47.90;97533.91;4964974;28;20078;-63
2023/06/14 06:41:23;;;;;;;21.25;5.68;;;;;;;37.11;46.60;97531.94;4955181;28;20105;-63
2023/06/14 06:43:52;;;;;;;17.23;5.10;;;;;;;37.25;49.21;97541.00;4954902;28;20106;-64
2023/06/14 06:46:29;;;;;;;27.55;5.40;;;;;;;36.81;48.24;97537.81;4961822;28;20055;-63
2023/06/14 06:48:59;;;;;;;21.77;6.10;;;;;;;36.83;49.94;97533.47;4952611;28;20051;-64
2023/06/14 06:51:29;;;;;;;26.13;5.20;;;;;;;36.98;49.95;97533.47;4957557;28;20059;-62
2023/06/14 06:53:58;;;;;;;21.77;6.32;;;;;;;36.59;49.64;97531.50;4955366;28;20613;-61
2023/06/14 06:56:28;;;;;;;27.23;5.55;;;;;;;36.80;49.45;97531.50;4955319;28;20054;-63
2023/06/14 06:58:57;;;;;;;24.00;6.25;;;;;;;36.83;49.17;97524.41;4955536;28;20818;-62
2023/06/14 07:01:28;;;;;;;29.17;5.57;;;;;;;36.89;48.02;97522.84;4952120;28;20130;-62
2023/06/14 07:03:58;;;;;;;28.00;5.80;;;;;;;36.98;49.31;97520.47;4952159;28;20157;-63
2023/06/14 07:06:27;;;;;;;27.63;5.80;;;;;;;37.16;45.51;97531.53;4956422;28;20055;-64
2023/06/14 07:09:01;;;;;;;25.27;5.50;;;;;;;37.07;48.16;97520.09;4955762;28;20058;-62
2023/06/14 07:11:31;;;;;;;21.73;6.03;;;;;;;37.16;47.91;97523.25;4958598;28;20058;-62
2023/06/14 07:14:00;;;;;;;29.73;5.53;;;;;;;37.10;49.49;97509.03;4956460;28;20137;-63
2023/06/14 07:16:29;;;;;;;21.55;5.97;;;;;;;37.03;47.88;97508.25;4955933;28;20051;-62
2023/06/14 07:19:00;;;;;;;23.83;5.72;;;;;;;36.66;48.56;97514.94;4957910;28;20051;-62
2023/06/14 07:21:30;;;;;;;29.13;6.38;;;;;;;36.57;49.83;97505.44;4954951;28;20046;-62
2023/06/14 07:24:00;;;;;;;23.73;6.45;;;;;;;36.82;49.11;97498.00;4958717;28;20046;-63
2023/06/14 07:26:30;;;;;;;20.77;6.75;;;;;;;36.98;47.94;97503.91;4954716;28;20042;-63
2023/06/14 07:29:00;;;;;;;27.50;6.47;;;;;;;37.08;48.91;97496.84;4953583;28;20669;-62
2023/06/14 07:31:29;;;;;;;24.98;5.80;;;;;;;37.05;48.73;97490.09;4951132;28;20055;-62
2023/06/14 07:36:47;;;;;;;35.95;6.57;;;;;;;37.20;48.26;97494.44;5452224;22;20125;-69
2023/06/14 07:39:17;;;;;;;30.67;6.38;;;;;;;37.30;47.78;97487.31;4937509;28;20382;-69
2023/06/14 07:41:47;;;;;;;27.73;5.75;;;;;;;37.38;46.55;97482.56;4945434;28;20050;-71
2023/06/14 07:44:18;;;;;;;30.10;6.97;;;;;;;37.44;47.43;97479.00;4948906;28;20129;-68
2023/06/14 07:46:49;;;;;;;38.58;5.63;;;;;;;37.21;48.23;97489.72;4939515;28;20074;-70
2023/06/14 07:49:18;;;;;;;30.48;5.68;;;;;;;37.33;49.06;97483.75;4931068;28;20046;-69
2023/06/14 07:51:49;;;;;;;30.55;5.30;;;;;;;37.27;48.54;97480.59;4962920;28;20050;-69
2023/06/14 07:54:24;;;;;;;33.72;5.85;;;;;;;37.05;50.85;97481.78;4952044;28;20043;-69
2023/06/14 07:56:54;;;;;;;26.88;6.63;;;;;;;36.88;50.61;97472.34;4942652;28;20050;-69
2023/06/14 07:59:23;;;;;;;29.02;5.28;;;;;;;36.80;51.57;97465.28;4951651;28;20743;-69
2023/06/14 08:01:53;;;;;;;28.13;5.38;;;;;;;36.93;50.40;97473.94;4951478;28;20046;-69
2023/06/14 08:04:23;;;;;;;30.92;6.45;;;;;;;37.09;49.29;97468.03;4962700;28;20050;-70
2023/06/14 08:06:53;;;;;;;23.63;5.97;;;;;;;37.03;49.67;97456.56;4945357;28;20053;-69
2023/06/14 08:09:22;;;;;;;21.48;5.03;;;;;;;37.09;49.14;97454.22;4980013;28;20066;-69
2023/06/14 08:11:52;;;;;;;23.65;5.07;;;;;;;37.00;49.74;97457.34;4947570;28;20066;-71
2023/06/14 08:14:22;;;;;;;27.75;6.35;;;;;;;36.87;50.18;97453.41;4931177;28;20059;-69
2023/06/14 08:16:52;;;;;;;32.20;6.95;;;;;;;37.01;48.97;97452.63;4950785;28;20113;-71
2023/06/14 08:19:22;;;;;;;40.50;5.55;;;;;;;36.80;50.58;97442.41;4933381;28;20478;-69
2023/06/14 08:21:51;;;;;;;26.40;5.00;;;;;;;36.76;50.06;97441.63;4952033;28;20074;-70
2023/06/14 08:24:27;;;;;;;28.95;5.68;;;;;;;36.78;50.46;97439.25;4961720;28;20086;-69
2023/06/14 08:27:00;;;;;;;38.60;5.88;;;;;;;37.01;48.16;97442.38;4935027;28;20430;-70
2023/06/14 08:29:32;;;;;;;25.45;4.80;;;;;;;37.01;48.67;97434.06;4965855;28;20471;-68
2023/06/14 08:32:02;;;;;;;24.83;5.60;;;;;;;36.76;50.36;97436.09;4983975;28;20058;-69
2023/06/14 08:34:31;;;;;;;25.05;4.85;;;;;;;36.71;50.49;97440.03;4967594;28;20082;-70
2023/06/14 08:37:01;;;;;;;28.92;5.25;;;;;;;36.77;51.27;97427.44;4951509;28;20054;-69
2023/06/14 08:39:31;;;;;;;28.98;4.93;;;;;;;36.76;49.30;97425.06;4969616;28;20047;-69
2023/06/14 08:42:03;;;;;;;26.55;5.03;;;;;;;36.30;52.05;97425.00;4931061;28;20051;-70
2023/06/14 08:44:33;;;;;;;24.05;5.25;;;;;;;36.28;52.00;97419.13;4966037;28;20054;-71
2023/06/14 08:47:05;;;;;;;23.80;6.18;;;;;;;36.44;50.66;97419.50;4950402;28;20446;-71
2023/06/14 08:49:38;;;;;;;43.47;4.97;;;;;;;36.57;51.69;97415.16;4988931;28;20053;-70
2023/06/14 08:52:10;;;;;;;17.73;5.35;;;;;;;36.63;51.47;97418.34;4947419;28;20131;-70
2023/06/14 08:54:43;;;;;;;25.10;5.32;;;;;;;36.56;52.03;97410.06;4954701;28;20050;-69
2023/06/14 08:57:15;;;;;;;;;;;;;;;36.52;52.42;97404.53;4955955;28;20470;-69
2023/06/14 08:59:54;;;;;;;33.13;5.70;;;;;;;36.50;52.80;97411.63;4956041;28;19936;-71
2023/06/14 09:02:25;;;;;;;29.98;5.35;;;;;;;36.62;52.17;97408.50;4936991;28;20474;-72
2023/06/14 09:04:59;;;;;;;29.95;6.38;;;;;;;36.64;50.86;97398.66;4938230;28;20753;-70
2023/06/14 09:07:29;;;;;;;28.95;5.70;;;;;;;36.63;51.45;97399.03;4969038;28;20371;-70
2023/06/14 09:10:21;;;;;;;27.15;4.97;;;;;;;36.96;49.43;97395.06;4943248;28;20046;-69
2023/06/14 09:12:51;;;;;;;26.23;4.78;;;;;;;37.22;48.24;97394.63;4965016;28;20360;-70
2023/06/14 09:15:21;;;;;;;33.63;5.57;;;;;;;37.31;47.03;97392.22;4933054;28;20054;-70
2023/06/14 09:17:51;;;;;;;22.35;4.50;;;;;;;37.08;46.26;97392.69;4934290;28;20134;-70
2023/06/14 09:20:21;;;;;;;30.17;5.28;;;;;;;37.04;46.09;97391.88;4932849;28;20087;-70
2023/06/14 09:22:50;;;;;;;24.08;4.95;;;;;;;36.68;45.59;97379.34;4938473;28;20074;-71
2023/06/14 09:25:24;;;;;;;21.77;4.82;;;;;;;36.47;46.72;97383.63;4953507;28;20055;-71
2023/06/14 09:27:59;;;;;;;20.92;4.95;;;;;;;35.98;44.89;97383.59;4947857;28;20459;-69
2023/06/14 09:30:31;;;;;;;22.27;4.80;;;;;;;35.40;47.76;97390.09;4968851;28;20061;-70
2023/06/14 09:33:00;;;;;;;28.02;4.68;;;;;;;35.06;47.54;97377.69;4946632;28;20536;-69
2023/06/14 09:35:32;;;;;;;22.23;4.80;;;;;;;35.15;50.82;97367.94;4977731;28;20583;-69
2023/06/14 09:38:02;;;;;;;21.52;5.05;;;;;;;35.20;52.10;97369.53;4975271;28;20047;-68
2023/06/14 09:40:36;;;;;;;22.23;5.20;;;;;;;35.34;47.83;97363.31;4968529;28;20069;-69
2023/06/14 09:43:11;;;;;;;29.15;4.88;;;;;;;35.12;48.04;97363.19;4978018;28;20058;-69
2023/06/14 09:45:45;;;;;;;27.10;5.72;;;;;;;34.98;49.58;97360.34;4972107;28;20129;-70
2023/06/14 09:48:17;;;;;;;19.98;4.80;;;;;;;34.84;51.31;97356.72;4976445;28;20053;-69
2023/06/14 09:50:49;;;;;;;17.98;5.50;;;;;;;34.84;52.29;97345.72;4977864;28;20513;-69
2023/06/14 09:53:25;;;;;;;16.42;3.90;;;;;;;34.71;48.85;97348.81;4976448;28;20058;-70
2023/06/14 09:55:58;;;;;;;33.63;6.55;;;;;;;34.48;49.74;97347.41;4968746;28;20061;-67
2023/06/14 09:58:28;;;;;;;;;;;;;;;34.77;50.40;97329.19;4967113;28;20053;-69
2023/06/14 10:00:59;;;;;;;29.63;7.85;;;;;;;34.75;49.96;97337.03;4982149;28;20769;-68
2023/06/14 10:03:32;;;;;;;23.85;4.72;;;;;;;34.72;50.76;97344.09;4972418;28;20441;-72
2023/06/14 10:06:25;;;;;;;23.80;5.13;;;;;;;34.56;49.75;97335.31;4623713;28;10000021;-71
2023/06/14 10:08:59;;;;;;;22.80;4.95;;;;;;;34.62;50.59;97336.53;4986623;28;20054;-72
2023/06/14 10:11:29;;;;;;;20.80;5.28;;;;;;;34.64;50.84;97332.22;4967365;28;20058;-71
2023/06/14 10:14:00;;;;;;;27.92;6.88;;;;;;;34.60;50.47;97336.94;4951147;28;20351;-72
2023/06/14 10:16:37;;;;;;;21.90;5.18;;;;;;;34.30;51.11;97333.53;4972609;28;20055;-72
2023/06/14 10:19:34;;;;;;;19.75;4.72;;;;;;;34.35;50.86;97329.66;4962762;28;20034;-68
2023/06/14 10:22:07;;;;;;;26.10;5.50;;;;;;;34.48;52.99;97322.66;4967933;28;20058;-69
2023/06/14 10:24:42;;;;;;;18.80;4.90;;;;;;;34.71;54.13;97318.53;4982428;28;20042;-69
2023/06/14 10:27:23;;;;;;;18.77;4.63;;;;;;;35.43;51.36;97334.22;4960524;28;20464;-70
2023/06/14 10:29:53;;;;;;;23.65;4.82;;;;;;;35.60;49.31;97332.69;4979038;28;20065;-71
2023/06/14 10:32:27;;;;;;;16.52;4.85;;;;;;;35.25;45.20;97329.84;4951409;28;20389;-69
2023/06/14 10:34:59;;;;;;;21.73;4.68;;;;;;;35.00;47.74;97319.50;4979064;28;20105;-71
2023/06/14 10:37:29;;;;;;;30.70;5.72;;;;;;;34.87;51.16;97326.50;4979541;28;20061;-70
2023/06/14 10:39:59;;;;;;;21.85;4.97;;;;;;;35.16;51.93;97321.94;4962571;28;20047;-67
2023/06/14 10:42:33;;;;;;;20.15;5.45;;;;;;;35.51;50.91;97318.50;4955632;28;20113;-72
2023/06/14 10:45:02;;;;;;;33.17;4.95;;;;;;;35.84;49.38;97318.22;4971459;28;20042;-69
2023/06/14 10:47:35;;;;;;;29.52;5.22;;;;;;;36.02;48.62;97315.47;4966312;28;20054;-68
2023/06/14 10:50:09;;;;;;;25.42;4.97;;;;;;;36.07;49.44;97314.31;4979406;28;20054;-69
2023/06/14 10:52:42;;;;;;;20.95;5.00;;;;;;;36.10;49.04;97305.22;4977111;28;20050;-70
2023/06/14 10:55:18;;;;;;;36.00;5.70;;;;;;;36.00;48.55;97312.31;4964303;28;20057;-77
2023/06/14 10:57:58;;;;;;;21.33;4.63;;;;;;;36.05;48.48;97306.41;4969808;28;20047;-71
2023/06/14 11:00:31;;;;;;;27.67;4.88;;;;;;;36.14;48.68;97304.06;4924146;28;20137;-68
2023/06/14 11:03:03;;;;;;;;;;;;;;;36.16;48.64;97293.44;4957321;28;20451;-70
2023/06/14 11:05:43;;;;;;;;;;;;;;;36.20;49.46;97283.22;4970309;28;19929;-68
2023/06/14 11:08:33;;;;;;;29.27;5.22;;;;;;;36.23;48.26;97287.94;4968991;28;19926;-68
2023/06/14 11:11:07;;;;;;;29.00;5.13;;;;;;;36.21;48.26;97284.75;4949526;28;20050;-69
2023/06/14 11:13:42;;;;;;;21.73;5.18;;;;;;;36.20;49.16;97271.38;4971092;28;20050;-74
2023/06/14 11:16:17;;;;;;;28.67;6.60;;;;;;;36.23;49.42;97262.31;4966293;28;20359;-69
2023/06/14 11:18:49;;;;;;;29.70;6.57;;;;;;;36.26;50.11;97270.59;4970922;28;20140;-71
2023/06/14 11:21:19;;;;;;;27.80;6.45;;;;;;;36.26;52.13;97272.53;4951798;28;21504;-70
2023/06/14 11:23:53;;;;;;;23.45;5.05;;;;;;;36.14;54.62;97256.41;4605669;28;10000390;-66
2023/06/14 11:26:30;;;;;;;30.52;5.40;;;;;;;36.06;56.51;97255.63;4952211;28;20449;-68
2023/06/14 11:29:01;;;;;;;22.55;4.97;;;;;;;35.97;53.22;97258.78;4963220;28;20070;-70
2023/06/14 11:31:31;;;;;;;30.95;5.30;;;;;;;35.85;55.31;97250.88;4952710;28;20109;-68
2023/06/14 11:34:01;;;;;;;26.73;5.43;;;;;;;35.79;52.48;97248.91;4947489;28;20042;-69
2023/06/14 11:36:34;;;;;;;30.25;4.95;;;;;;;35.70;52.27;97251.28;4970740;28;20046;-69
2023/06/14 11:39:08;;;;;;;23.77;4.57;;;;;;;35.49;49.23;97250.06;4963461;28;20547;-67
2023/06/14 11:41:46;;;;;;;24.08;4.35;;;;;;;35.22;48.42;97256.28;4964025;28;20580;-68
2023/06/14 11:44:15;;;;;;;23.77;4.60;;;;;;;34.81;46.61;97241.94;4962764;28;20148;-73
2023/06/14 11:46:45;;;;;;;24.98;5.20;;;;;;;34.53;49.96;97237.06;4967950;28;20148;-67
2023/06/14 11:49:14;;;;;;;23.85;5.00;;;;;;;34.41;48.32;97232.69;4967301;28;20047;-68